04:06
Airports
History
Links
Donate
Help keep this website running!
PayPal
Bitcoin
Information on this page is community maintained and may be outdated or inaccurate and is intended for reference only or PC simulator navigating!
Always use approved charts for navigating.
CCA7
Apple River
Apple River (CCA7)
Advocate Harbour, Nova Scotia, Canada
4
Lat/Lng:45° 27' 43" N / 64° 49' 17" W
45.461944 / -64.821389
Elevation:135'ft 41mMSL
ID / ICAO:CCA7
Runways:1
Longest:(09-27) 756.4m 2,482ft Grass
Distance To
Airport ID:
Airport Radio Frequencies
ATF: 123.2
Nearby VORs <50NM
Nearby NDBs
Nearby WeatherUpdated 02-20-17 03:16 GMT
Nearby weather at CYZX, Greenwood located 33.3 nautical miles from CCA7
Altimeter: 29.71
Visibility: 6.0 statute miles
Wind: 3 knots (320°)
Temp: 2°c 36°f
Humidity: 93.1%

METAR: CYZX 200316Z 32003KT 6SM BR OVC022 02/01 A2971 RMK SC8 WNDY HILL UNAVBL SLP063

(Powered by phpweather)
Runway 09 / 27
Dimensions:756.4 x 14.9m 2482' x 49'ft
Surface:Grass
Runway 09 [A]Runway 27 [B]
Heading:071°TH 251°TH
Lat:
Lng:
45° 27' 39.16"N
64° 49' 33.73"W
45° 27' 46.83"N
64° 49' 0.27"W
Google Map
Nearby Airports
(C) Waterville Kings Co Muni 29.5 NM
CCW3 SSE 163°
(C) Greenwood 33.3 NM
CYZX (WX) S 188°
(C) GREATER MONCTON INTL 45.4 NM
CYQM (WX) N
(U) Moncton McEwen 47.9 NM
CCG4 N
4 STANLEY 50.4 NM
CCW4 ESE 119°
(C) Saint John 52.8 NM
CYSJ (WX) W 259°
(U) DEBERT 66.0 NM
CCQ3 E 92°
VFR Chart
Flight Planning at SkyVector.com